createdAt,value
2016-04-27T00:00:08.935Z,991.98
2016-04-27T00:01:08.968Z,991.97
2016-04-27T00:02:08.987Z,991.97
2016-04-27T00:03:09.021Z,991.98
2016-04-27T00:04:09.040Z,991.98
2016-04-27T00:05:09.073Z,992.01
2016-04-27T00:06:09.107Z,992
2016-04-27T00:07:09.125Z,992.05
2016-04-27T00:08:09.176Z,992
2016-04-27T00:09:09.193Z,992.07
2016-04-27T00:10:09.211Z,992
2016-04-27T00:11:09.245Z,991.98
2016-04-27T00:12:09.264Z,992.01
2016-04-27T00:13:09.282Z,992.08
2016-04-27T00:14:09.316Z,992.03
2016-04-27T00:15:09.334Z,992.01
2016-04-27T00:16:09.367Z,992.01
2016-04-27T00:17:09.402Z,992.02
2016-04-27T00:18:09.436Z,991.96
2016-04-27T00:19:09.454Z,991.99
2016-04-27T00:20:09.489Z,991.96
2016-04-27T00:21:09.631Z,992.02
2016-04-27T00:22:09.522Z,991.99
2016-04-27T00:23:09.556Z,991.97
2016-04-27T00:24:09.606Z,991.99
2016-04-27T00:25:09.721Z,992.1
2016-04-27T00:26:09.627Z,991.98
2016-04-27T00:27:09.660Z,991.94
2016-04-27T00:28:09.679Z,991.98
2016-04-27T00:29:09.697Z,992
2016-04-27T00:30:09.700Z,992
2016-04-27T00:32:09.783Z,991.99
2016-04-27T00:33:09.818Z,992.04
2016-04-27T00:34:09.836Z,992
2016-04-27T00:35:09.870Z,992.01
2016-04-27T00:36:10.359Z,992.07
2016-04-27T00:37:10.315Z,992.05
2016-04-27T00:38:09.940Z,992.05
2016-04-27T00:39:09.974Z,992.05
2016-04-27T00:40:09.932Z,992.03
2016-04-27T00:41:10.030Z,992.06
2016-04-27T00:42:10.055Z,992.07
2016-04-27T00:43:10.061Z,992.09
2016-04-27T00:44:10.093Z,992.13
2016-04-27T00:45:10.118Z,992.17
2016-04-27T00:46:10.184Z,992.19
2016-04-27T00:47:10.187Z,992.22
2016-04-27T00:48:10.204Z,992.17
2016-04-27T00:49:10.239Z,992.18
2016-04-27T00:50:10.257Z,992.15
2016-04-27T00:51:10.307Z,992.16
2016-04-27T00:52:10.309Z,992.14
2016-04-27T00:53:10.453Z,992.16
2016-04-27T00:54:10.377Z,992.19
2016-04-27T00:55:10.394Z,992.19
2016-04-27T00:56:10.429Z,992.23
2016-04-27T00:57:10.448Z,992.2
2016-04-27T00:58:10.497Z,992.24
2016-04-27T00:59:10.483Z,992.21
2016-04-27T01:00:10.519Z,992.18
2016-04-27T01:01:10.552Z,992.22
2016-04-27T01:02:10.570Z,992.32
2016-04-27T01:03:10.589Z,992.25
2016-04-27T01:04:10.716Z,992.27
2016-04-27T01:05:10.797Z,992.25
2016-04-27T01:06:10.737Z,992.24
2016-04-27T01:07:10.772Z,992.22
2016-04-27T01:08:10.790Z,992.28
2016-04-27T01:09:10.807Z,992.25
2016-04-27T01:10:10.936Z,992.32
2016-04-27T01:11:10.829Z,992.28
2016-04-27T01:12:10.846Z,992.3
2016-04-27T01:13:10.959Z,992.29
2016-04-27T01:14:10.899Z,992.3
2016-04-27T01:15:10.918Z,992.34
2016-04-27T01:16:11.076Z,992.35
2016-04-27T01:17:10.985Z,992.35
2016-04-27T01:18:11.004Z,992.31
2016-04-27T01:19:11.572Z,992.37
2016-04-27T01:20:11.087Z,992.36
2016-04-27T01:21:11.028Z,992.36
2016-04-27T01:22:11.145Z,992.4
2016-04-27T01:23:11.134Z,992.34
2016-04-27T01:24:11.105Z,992.33
2016-04-27T01:25:11.186Z,992.3
2016-04-27T01:26:11.314Z,992.33
2016-04-27T01:27:11.239Z,992.31
2016-04-27T01:28:11.257Z,992.33
2016-04-27T01:29:11.291Z,992.33
2016-04-27T01:30:11.325Z,992.27
2016-04-27T01:31:11.438Z,992.29
2016-04-27T01:32:11.377Z,992.31
2016-04-27T01:33:11.427Z,992.26
2016-04-27T01:34:11.430Z,992.27
2016-04-27T01:35:11.449Z,992.3
2016-04-27T01:36:11.466Z,992.31
2016-04-27T01:37:11.516Z,992.33
2016-04-27T01:38:11.535Z,992.26
2016-04-27T01:39:11.552Z,992.37
2016-04-27T01:40:11.587Z,992.35
2016-04-27T01:41:11.667Z,992.33
2016-04-27T01:42:11.638Z,992.37
2016-04-27T01:43:11.657Z,992.37
2016-04-27T01:44:11.690Z,992.34
2016-04-27T01:45:11.740Z,992.42
2016-04-27T01:46:11.743Z,992.4
2016-04-27T01:47:11.777Z,992.43
2016-04-27T01:48:11.795Z,992.4
2016-04-27T01:49:11.829Z,992.44
2016-04-27T01:50:11.865Z,992.45
2016-04-27T01:51:11.993Z,992.48
2016-04-27T01:52:11.901Z,992.47
2016-04-27T01:53:12.044Z,992.5
2016-04-27T01:54:11.954Z,992.5
2016-04-27T01:55:11.987Z,992.5
2016-04-27T01:56:12.020Z,992.54
2016-04-27T01:57:12.040Z,992.51
2016-04-27T01:58:12.057Z,992.57
2016-04-27T01:59:12.092Z,992.53
2016-04-27T02:00:12.156Z,992.5
2016-04-27T02:01:12.097Z,992.55
2016-04-27T02:02:12.209Z,992.56
2016-04-27T02:03:12.650Z,992.54
2016-04-27T02:04:12.230Z,992.54
2016-04-27T02:05:12.264Z,992.58
2016-04-27T02:06:12.298Z,992.58
2016-04-27T02:07:12.348Z,992.55
2016-04-27T02:08:12.350Z,992.56
2016-04-27T02:09:12.369Z,992.55
2016-04-27T02:10:12.372Z,992.54
2016-04-27T02:11:12.406Z,992.52
2016-04-27T02:12:12.439Z,992.58
2016-04-27T02:13:12.457Z,992.55
2016-04-27T02:14:12.491Z,992.61
2016-04-27T02:15:12.525Z,992.61
2016-04-27T02:16:12.543Z,992.59
2016-04-27T02:17:12.562Z,992.57
2016-04-27T02:18:12.611Z,992.57
2016-04-27T02:19:12.614Z,992.55
2016-04-27T02:20:12.648Z,992.6
2016-04-27T02:21:12.698Z,992.61
2016-04-27T02:22:13.985Z,992.59
2016-04-27T02:23:12.782Z,992.65
2016-04-27T02:24:12.846Z,992.64
2016-04-27T02:25:12.896Z,992.65
2016-04-27T02:26:12.977Z,992.66
2016-04-27T02:27:12.902Z,992.64
2016-04-27T02:28:12.903Z,992.62
2016-04-27T02:29:12.890Z,992.63
2016-04-27T02:30:12.910Z,992.59
2016-04-27T02:31:12.928Z,992.64
2016-04-27T02:32:12.961Z,992.68
2016-04-27T02:33:13.151Z,992.67
2016-04-27T02:34:13.014Z,992.67
2016-04-27T02:35:13.064Z,992.62
2016-04-27T02:36:13.081Z,992.63
2016-04-27T02:37:13.351Z,992.68
2016-04-27T02:38:13.164Z,992.69
2016-04-27T02:39:13.153Z,992.69
2016-04-27T02:40:13.202Z,992.65
2016-04-27T02:41:13.236Z,992.66
2016-04-27T02:42:13.239Z,992.66
2016-04-27T02:43:13.265Z,992.7
2016-04-27T02:44:13.340Z,992.63
2016-04-27T02:45:13.399Z,992.73
2016-04-27T02:46:13.477Z,992.66
2016-04-27T02:47:13.552Z,992.66
2016-04-27T02:48:13.607Z,992.62
2016-04-27T02:49:13.641Z,992.61
2016-04-27T02:50:13.675Z,992.63
2016-04-27T02:51:13.850Z,992.65
2016-04-27T02:52:13.898Z,992.62
2016-04-27T02:53:13.805Z,992.66
2016-04-27T02:54:13.845Z,992.67
2016-04-27T02:55:13.883Z,992.64
2016-04-27T02:56:13.861Z,992.69
2016-04-27T02:57:13.931Z,992.66
2016-04-27T02:58:14.032Z,992.68
2016-04-27T02:59:13.990Z,992.68
2016-04-27T03:00:14.042Z,992.7
2016-04-27T03:01:14.046Z,992.74
2016-04-27T03:02:14.082Z,992.76
2016-04-27T03:03:14.196Z,992.76
2016-04-27T03:04:14.137Z,992.79
2016-04-27T03:05:14.172Z,992.75
2016-04-27T03:06:14.190Z,992.78
2016-04-27T03:07:14.304Z,992.74
2016-04-27T03:08:14.260Z,992.76
2016-04-27T03:09:14.279Z,992.78
2016-04-27T03:10:14.314Z,992.73
2016-04-27T03:11:14.331Z,992.73
2016-04-27T03:12:14.350Z,992.71
2016-04-27T03:13:14.370Z,992.73
2016-04-27T03:14:14.404Z,992.76
2016-04-27T03:15:14.422Z,992.73
2016-04-27T03:16:14.455Z,992.72
2016-04-27T03:17:14.473Z,992.7
2016-04-27T03:18:14.508Z,992.7
2016-04-27T03:19:14.525Z,992.7
2016-04-27T03:20:14.560Z,992.7
2016-04-27T03:21:14.594Z,992.67
2016-04-27T03:22:14.628Z,992.72
2016-04-27T03:23:14.646Z,992.71
2016-04-27T03:24:14.680Z,992.71
2016-04-27T03:25:14.714Z,992.71
2016-04-27T03:26:14.717Z,992.69
2016-04-27T03:27:14.750Z,992.67
2016-04-27T03:28:14.799Z,992.68
2016-04-27T03:29:14.803Z,992.65
2016-04-27T03:30:14.852Z,992.68
2016-04-27T03:31:14.855Z,992.69
2016-04-27T03:32:14.889Z,992.69
2016-04-27T03:33:14.907Z,992.66
2016-04-27T03:34:14.926Z,992.65
2016-04-27T03:35:14.960Z,992.68
2016-04-27T03:36:14.993Z,992.65
2016-04-27T03:37:15.043Z,992.68
2016-04-27T03:38:15.062Z,992.72
2016-04-27T03:39:15.126Z,992.76
2016-04-27T03:40:15.207Z,992.67
2016-04-27T03:41:15.163Z,992.69
2016-04-27T03:42:15.165Z,992.73
2016-04-27T03:43:15.215Z,992.75
2016-04-27T03:44:15.250Z,992.7
2016-04-27T03:45:15.220Z,992.71
2016-04-27T03:46:15.317Z,992.71
2016-04-27T03:47:15.289Z,992.73
2016-04-27T03:48:15.307Z,992.71
2016-04-27T03:49:15.341Z,992.73
2016-04-27T03:50:15.359Z,992.71
2016-04-27T03:51:15.424Z,992.68
2016-04-27T03:52:15.428Z,992.69
2016-04-27T03:53:15.586Z,992.66
2016-04-27T03:54:15.480Z,992.7
2016-04-27T03:55:15.608Z,992.66
2016-04-27T03:56:15.547Z,992.68
2016-04-27T03:57:15.628Z,992.65
2016-04-27T03:58:15.583Z,992.73
2016-04-27T03:59:15.618Z,992.69
2016-04-27T04:00:15.636Z,992.69
2016-04-27T04:01:15.654Z,992.73
2016-04-27T04:02:15.704Z,992.66
2016-04-27T04:03:15.738Z,992.68
2016-04-27T04:04:15.741Z,992.73
2016-04-27T04:05:15.760Z,992.66
2016-04-27T04:06:15.794Z,992.7
2016-04-27T04:07:15.858Z,992.7
2016-04-27T04:08:15.846Z,992.67
2016-04-27T04:09:15.880Z,992.62
2016-04-27T04:10:15.899Z,992.64
2016-04-27T04:11:15.932Z,992.62
2016-04-27T04:12:15.983Z,992.64
2016-04-27T04:13:15.985Z,992.66
2016-04-27T04:14:16.018Z,992.6
2016-04-27T04:15:16.052Z,992.6
2016-04-27T04:16:16.180Z,992.6
2016-04-27T04:17:16.104Z,992.57
2016-04-27T04:18:16.124Z,992.62
2016-04-27T04:19:16.173Z,992.57
2016-04-27T04:20:16.176Z,992.58
2016-04-27T04:21:16.304Z,992.58
2016-04-27T04:22:16.231Z,992.57
2016-04-27T04:23:16.266Z,992.57
2016-04-27T04:24:16.283Z,992.59
2016-04-27T04:25:16.427Z,992.57
2016-04-27T04:26:16.335Z,992.55
2016-04-27T04:27:16.464Z,992.52
2016-04-27T04:28:16.388Z,992.57
2016-04-27T04:29:16.422Z,992.57
2016-04-27T04:30:16.566Z,992.54
2016-04-27T04:31:16.475Z,992.53
2016-04-27T04:32:16.555Z,992.55
2016-04-27T04:33:16.668Z,992.55
2016-04-27T04:34:16.545Z,992.57
2016-04-27T04:35:16.579Z,992.58
2016-04-27T04:36:16.628Z,992.57
2016-04-27T04:37:16.990Z,992.54
2016-04-27T04:38:16.665Z,992.57
2016-04-27T04:39:16.699Z,992.55
2016-04-27T04:40:16.717Z,992.51
2016-04-27T04:41:16.736Z,992.51
2016-04-27T04:42:16.785Z,992.51
2016-04-27T04:43:16.787Z,992.5
2016-04-27T04:44:16.823Z,992.45
2016-04-27T04:45:16.872Z,992.54
2016-04-27T04:46:16.890Z,992.52
2016-04-27T04:47:16.892Z,992.52
2016-04-27T04:48:16.958Z,992.48
2016-04-27T04:49:17.023Z,992.47
2016-04-27T04:50:16.978Z,992.43
2016-04-27T04:51:17.013Z,992.48
2016-04-27T04:52:17.047Z,992.51
2016-04-27T04:53:17.080Z,992.49
2016-04-27T04:54:17.100Z,992.45
2016-04-27T04:55:17.289Z,992.51
2016-04-27T04:56:17.197Z,992.48
2016-04-27T04:57:17.216Z,992.49
2016-04-27T04:58:17.250Z,992.51
2016-04-27T04:59:17.268Z,992.55
2016-04-27T05:00:17.318Z,992.5
2016-04-27T05:01:17.337Z,992.45
2016-04-27T05:02:17.324Z,992.48
2016-04-27T05:03:17.327Z,992.47
2016-04-27T05:04:17.360Z,992.48
2016-04-27T05:05:17.394Z,992.45
2016-04-27T05:06:17.429Z,992.44
2016-04-27T05:07:17.431Z,992.45
2016-04-27T05:08:17.465Z,992.46
2016-04-27T05:09:17.498Z,992.42
2016-04-27T05:10:17.532Z,992.42
2016-04-27T05:11:17.567Z,992.45
2016-04-27T05:12:17.616Z,992.45
2016-04-27T05:13:17.604Z,992.45
2016-04-27T05:14:17.653Z,992.45
2016-04-27T05:15:17.812Z,992.47
2016-04-27T05:16:17.689Z,992.45
2016-04-27T05:17:17.708Z,992.44
2016-04-27T05:18:17.741Z,992.44
2016-04-27T05:19:17.775Z,992.5
2016-04-27T05:20:17.794Z,992.46
2016-04-27T05:21:17.828Z,992.46
2016-04-27T05:22:17.847Z,992.44
2016-04-27T05:23:17.880Z,992.44
2016-04-27T05:24:17.961Z,992.46
2016-04-27T05:25:17.916Z,992.45
2016-04-27T05:26:17.966Z,992.46
2016-04-27T05:27:18.047Z,992.43
2016-04-27T05:28:18.002Z,992.42
2016-04-27T05:29:18.037Z,992.42
2016-04-27T05:30:18.055Z,992.41
2016-04-27T05:31:18.105Z,992.4
2016-04-27T05:32:18.108Z,992.41
2016-04-27T05:33:18.157Z,992.41
2016-04-27T05:34:18.175Z,992.4
2016-04-27T05:35:18.193Z,992.38
2016-04-27T05:36:18.274Z,992.39
2016-04-27T05:37:18.387Z,992.38
2016-04-27T05:38:18.296Z,992.41
2016-04-27T05:39:18.313Z,992.41
2016-04-27T05:40:18.332Z,992.42
2016-04-27T05:41:18.366Z,992.39
2016-04-27T05:42:18.400Z,992.38
2016-04-27T05:43:18.371Z,992.43
2016-04-27T05:44:18.467Z,992.38
2016-04-27T05:45:18.501Z,992.41
2016-04-27T05:46:18.504Z,992.42
2016-04-27T05:47:18.539Z,992.45
2016-04-27T05:48:18.573Z,992.43
2016-04-27T05:49:18.637Z,992.41
2016-04-27T05:50:18.609Z,992.41
2016-04-27T05:51:18.830Z,992.4
2016-04-27T05:52:18.677Z,992.4
2016-04-27T05:53:18.695Z,992.4
2016-04-27T05:54:18.839Z,992.44
2016-04-27T05:55:18.778Z,992.44
2016-04-27T05:56:18.766Z,992.47
2016-04-27T05:57:18.800Z,992.53
2016-04-27T05:58:18.819Z,992.51
2016-04-27T05:59:18.852Z,992.53
2016-04-27T06:00:18.886Z,992.53
2016-04-27T06:01:19.013Z,992.57
2016-04-27T06:02:18.969Z,992.56
2016-04-27T06:03:19.019Z,992.62
2016-04-27T06:04:18.991Z,992.57
2016-04-27T06:05:18.962Z,992.54
2016-04-27T06:06:19.043Z,992.57
2016-04-27T06:07:19.092Z,992.6
2016-04-27T06:08:19.251Z,992.56
2016-04-27T06:09:19.129Z,992.57
2016-04-27T06:10:19.162Z,992.63
2016-04-27T06:11:19.307Z,992.61
2016-04-27T06:12:19.262Z,992.61
2016-04-27T06:13:19.249Z,992.62
2016-04-27T06:14:19.440Z,992.68
2016-04-27T06:15:19.457Z,992.68
2016-04-27T06:16:19.382Z,992.65
2016-04-27T06:17:19.540Z,992.7
2016-04-27T06:18:19.575Z,992.7
2016-04-27T06:19:19.421Z,992.71
2016-04-27T06:20:19.423Z,992.67
2016-04-27T06:21:19.474Z,992.67
2016-04-27T06:22:19.523Z,992.68
2016-04-27T06:23:19.511Z,992.69
2016-04-27T06:24:19.529Z,992.69
2016-04-27T06:25:19.562Z,992.63
2016-04-27T06:26:19.612Z,992.6
2016-04-27T06:27:19.630Z,992.66
2016-04-27T06:28:19.680Z,992.66
2016-04-27T06:29:19.698Z,992.69
2016-04-27T06:30:19.700Z,992.69
2016-04-27T06:31:19.735Z,992.71
2016-04-27T06:32:19.769Z,992.75
2016-04-27T06:33:19.833Z,992.73
2016-04-27T06:34:19.821Z,992.73
2016-04-27T06:35:19.855Z,992.76
2016-04-27T06:36:19.857Z,992.82
2016-04-27T06:37:19.907Z,992.86
2016-04-27T06:38:19.862Z,992.77
2016-04-27T06:39:19.960Z,992.87
2016-04-27T06:40:19.977Z,992.83
2016-04-27T06:41:20.012Z,992.88
2016-04-27T06:42:20.062Z,992.84
2016-04-27T06:43:20.079Z,992.87
2016-04-27T06:44:20.113Z,992.86
2016-04-27T06:45:20.116Z,992.88
2016-04-27T06:46:20.150Z,992.92
2016-04-27T06:47:20.387Z,992.85
2016-04-27T06:48:20.203Z,992.89
2016-04-27T06:49:20.237Z,992.87
2016-04-27T06:50:20.334Z,992.88
2016-04-27T06:51:20.273Z,992.92
2016-04-27T06:52:20.306Z,992.92
2016-04-27T06:53:20.342Z,992.95
2016-04-27T06:54:20.390Z,992.93
2016-04-27T06:55:20.409Z,992.92
2016-04-27T06:56:20.427Z,992.95
2016-04-27T06:57:20.461Z,992.96
2016-04-27T06:58:20.480Z,992.97
2016-04-27T06:59:20.514Z,992.96
2016-04-27T07:02:20.537Z,992.98
2016-04-27T07:03:20.555Z,992.99
2016-04-27T07:04:20.589Z,993.01
2016-04-27T07:05:20.607Z,993.02
2016-04-27T07:06:20.641Z,992.98
2016-04-27T13:55:21.951Z,997.68
2016-04-27T13:56:21.985Z,997.65
2016-04-27T13:57:22.019Z,997.72
2016-04-27T13:58:22.052Z,997.74
2016-04-27T13:59:22.087Z,997.79
2016-04-27T14:00:22.104Z,997.86
2016-04-27T14:01:22.154Z,997.85
2016-04-27T14:02:22.187Z,997.89
2016-04-27T14:03:22.222Z,997.94
2016-04-27T14:04:22.257Z,997.93
2016-04-27T14:05:22.290Z,997.94
2016-04-27T14:06:22.323Z,997.99
2016-04-27T14:07:22.358Z,997.96
2016-04-27T14:08:22.392Z,997.92
2016-04-27T14:09:22.426Z,997.89
2016-04-27T14:10:22.459Z,997.96
2016-04-27T14:11:22.494Z,997.94
2016-04-27T14:12:22.528Z,997.93
2016-04-27T14:13:22.562Z,997.9
2016-04-27T14:14:22.595Z,997.91
2016-04-27T14:15:22.630Z,997.98
2016-04-27T14:16:22.663Z,997.91
2016-04-27T14:17:22.691Z,997.86
2016-04-27T14:18:22.731Z,997.85
2016-04-27T14:19:22.767Z,997.82
2016-04-27T14:20:22.801Z,997.82
2016-04-27T14:21:22.834Z,997.87
2016-04-27T14:22:22.867Z,997.91
2016-04-27T14:23:22.906Z,997.93
2016-04-27T14:24:22.941Z,997.95
2016-04-27T14:25:22.974Z,997.9
2016-04-27T14:26:23.025Z,997.93
2016-04-27T14:27:23.058Z,997.87
2016-04-27T14:28:23.092Z,997.92
2016-04-27T14:29:23.127Z,997.94
2016-04-27T14:30:23.175Z,997.98
2016-04-27T14:31:23.210Z,997.95
2016-04-27T14:32:23.243Z,997.99
2016-04-27T14:33:23.293Z,998.01
2016-04-27T14:34:23.327Z,998.01
2016-04-27T14:35:23.345Z,998.07
2016-04-27T14:36:23.396Z,998.07
2016-04-27T14:37:23.429Z,998.03
2016-04-27T14:38:23.463Z,998.06
2016-04-27T14:39:23.496Z,998.02
2016-04-27T14:40:23.546Z,998.12
2016-04-27T14:41:23.564Z,998.15
2016-04-27T14:42:23.599Z,998.17
2016-04-27T14:43:23.664Z,998.18
2016-04-27T14:44:23.682Z,998.15
2016-04-27T14:45:23.716Z,998.26
2016-04-27T14:46:23.750Z,998.19
2016-04-27T14:47:23.784Z,998.27
2016-04-27T14:48:23.818Z,998.25
2016-04-27T14:49:23.867Z,998.25
2016-04-27T14:50:23.886Z,998.25
2016-04-27T14:51:23.920Z,998.28
2016-04-27T14:52:23.954Z,998.27
2016-04-27T14:53:24.003Z,998.35
2016-04-27T14:54:24.021Z,998.39
2016-04-27T14:55:24.056Z,998.37
2016-04-27T14:56:24.089Z,998.37
2016-04-27T14:57:24.123Z,998.41
2016-04-27T14:58:24.158Z,998.43
2016-04-27T14:59:24.207Z,998.44
2016-04-27T15:00:24.225Z,998.43
2016-04-27T15:01:24.258Z,998.43
2016-04-27T15:02:24.293Z,998.45
2016-04-27T15:03:24.327Z,998.44
2016-04-27T15:04:24.361Z,998.52
2016-04-27T15:05:24.394Z,998.59
2016-04-27T15:06:24.429Z,998.54
2016-04-27T15:07:24.463Z,998.55
2016-04-27T15:08:24.496Z,998.6
2016-04-27T15:09:24.530Z,998.56
2016-04-27T15:10:24.564Z,998.61
2016-04-27T15:11:24.598Z,998.55
2016-04-27T15:12:24.632Z,998.68
2016-04-27T15:13:24.682Z,998.58
2016-04-27T15:14:24.700Z,998.63
2016-04-27T15:15:24.734Z,998.59
2016-04-27T15:16:24.768Z,998.63
2016-04-27T15:17:24.802Z,998.62
2016-04-27T15:18:24.836Z,998.63
2016-04-27T15:19:24.870Z,998.69
2016-04-27T15:20:24.904Z,998.75
2016-04-27T15:21:24.937Z,998.74
2016-04-27T15:22:24.973Z,998.81
2016-04-27T15:23:25.007Z,998.84
2016-04-27T15:24:25.962Z,998.87
2016-04-27T15:25:25.074Z,998.96
2016-04-27T15:26:25.092Z,999.06
2016-04-27T15:27:25.127Z,999.03
2016-04-27T15:28:25.162Z,999.04
2016-04-27T15:29:25.195Z,999.08
2016-04-27T15:30:25.228Z,999.02
2016-04-27T15:31:25.262Z,999.13
2016-04-27T15:32:25.297Z,999.14
2016-04-27T15:33:25.330Z,999.13
2016-04-27T15:34:25.364Z,999.14
2016-04-27T15:35:25.383Z,999.17
2016-04-27T15:36:25.417Z,999.18
2016-04-27T15:37:25.450Z,999.2
2016-04-27T15:38:25.484Z,999.17
2016-04-27T15:39:25.518Z,999.16
2016-04-27T15:40:25.552Z,999.16
2016-04-27T15:41:25.586Z,999.18
2016-04-27T15:42:25.620Z,999.18
2016-04-27T15:43:25.638Z,999.16
2016-04-27T15:44:25.672Z,999.12
2016-04-27T15:45:25.707Z,999.13
2016-04-27T15:46:25.740Z,999.11
2016-04-27T15:47:25.774Z,999.12
2016-04-27T15:48:25.793Z,999.13
2016-04-27T15:49:25.827Z,999.12
2016-04-27T15:50:25.861Z,999.2
2016-04-27T15:51:25.894Z,999.14
2016-04-27T15:52:25.929Z,999.17
2016-04-27T15:53:25.962Z,999.17
2016-04-27T15:54:25.996Z,999.18
2016-04-27T15:55:26.029Z,999.18
2016-04-27T15:56:26.049Z,999.2
2016-04-27T15:57:26.083Z,999.18
2016-04-27T15:58:26.117Z,999.17
2016-04-27T15:59:26.150Z,999.24
2016-04-27T16:00:26.184Z,999.28
2016-04-27T16:01:26.218Z,999.3
2016-04-27T16:02:26.253Z,999.34
2016-04-27T16:03:26.287Z,999.38
2016-04-27T16:04:26.304Z,999.4
2016-04-27T16:05:26.339Z,999.46
2016-04-27T16:06:26.372Z,999.37
2016-04-27T16:07:26.391Z,999.41
2016-04-27T16:08:26.440Z,999.38
2016-04-27T16:09:26.458Z,999.41
2016-04-27T16:10:26.492Z,999.35
2016-04-27T16:11:26.527Z,999.35
2016-04-27T16:12:26.561Z,999.34
2016-04-27T16:13:26.610Z,999.32
2016-04-27T16:14:26.613Z,999.4
2016-04-27T16:15:26.646Z,999.33
2016-04-27T16:16:26.680Z,999.39
2016-04-27T16:17:26.714Z,999.33
2016-04-27T16:18:26.749Z,999.42
2016-04-27T16:19:26.766Z,999.42
2016-04-27T16:20:26.801Z,999.46
2016-04-27T16:21:26.835Z,999.45
2016-04-27T16:22:26.868Z,999.4
2016-04-27T16:23:26.902Z,999.42
2016-04-27T16:24:26.998Z,999.41
2016-04-27T16:25:26.955Z,999.39
2016-04-27T16:26:26.989Z,999.42
2016-04-27T16:27:27.023Z,999.44
2016-04-27T16:28:27.057Z,999.48
2016-04-27T16:29:27.075Z,999.5
2016-04-27T16:30:27.109Z,999.43
2016-04-27T16:31:27.159Z,999.45
2016-04-27T16:32:27.176Z,999.47
2016-04-27T16:33:27.211Z,999.51
2016-04-27T16:34:27.229Z,999.5
2016-04-27T16:35:27.263Z,999.53
2016-04-27T16:36:27.297Z,999.47
2016-04-27T16:37:27.331Z,999.52
2016-04-27T16:38:27.365Z,999.56
2016-04-27T16:39:27.398Z,999.59
2016-04-27T16:40:27.417Z,999.6
2016-04-27T16:41:27.451Z,999.61
2016-04-27T16:42:27.485Z,999.62
2016-04-27T16:43:27.519Z,999.61
2016-04-27T16:44:27.553Z,999.63
2016-04-27T16:45:27.586Z,999.63
2016-04-27T16:46:27.606Z,999.62
2016-04-27T16:47:27.639Z,999.59
2016-04-27T16:48:27.673Z,999.62
2016-04-27T16:49:27.707Z,999.59
2016-04-27T16:50:27.725Z,999.62
2016-04-27T16:51:27.759Z,999.6
2016-04-27T16:52:27.793Z,999.61
2016-04-27T16:53:27.827Z,999.6
2016-04-27T16:54:27.861Z,999.62
2016-04-27T16:55:27.879Z,999.68
2016-04-27T16:56:27.913Z,999.6
2016-04-27T16:57:27.947Z,999.62
2016-04-27T16:58:27.981Z,999.69
2016-04-27T16:59:28.015Z,999.7
2016-04-27T17:00:28.033Z,999.71
2016-04-27T17:01:28.068Z,999.7
2016-04-27T17:02:28.101Z,999.74
2016-04-27T17:03:28.135Z,999.76
2016-04-27T17:04:28.169Z,999.77
2016-04-27T17:05:28.187Z,999.75
2016-04-27T17:06:28.237Z,999.81
2016-04-27T17:07:28.255Z,999.78
2016-04-27T17:08:28.289Z,999.78
2016-04-27T17:09:28.433Z,999.87
2016-04-27T17:10:28.341Z,999.89
2016-04-27T17:11:28.376Z,999.91
2016-04-27T17:12:28.409Z,999.93
2016-04-27T17:13:28.444Z,999.96
2016-04-27T17:14:28.462Z,1000.02
2016-04-27T17:15:28.495Z,1000.03
2016-04-27T17:16:28.530Z,1000.09
2016-04-27T17:17:28.564Z,1000.1
2016-04-27T17:18:28.582Z,1000.2
2016-04-27T17:19:28.616Z,1000.27
2016-04-27T17:20:28.649Z,1000.3
2016-04-27T17:21:28.683Z,1000.38
2016-04-27T17:22:28.718Z,1000.37
2016-04-27T17:23:28.735Z,1000.4
2016-04-27T17:24:28.769Z,1000.44
2016-04-27T17:25:28.804Z,1000.42
2016-04-27T17:26:28.838Z,1000.43
2016-04-27T17:27:28.856Z,1000.49
2016-04-27T17:28:28.890Z,1000.48
2016-04-27T17:29:28.924Z,1000.55
2016-04-27T17:30:28.957Z,1000.56
2016-04-27T17:31:28.992Z,1000.59
2016-04-27T17:32:29.010Z,1000.57
2016-04-27T17:33:29.060Z,1000.57
2016-04-27T17:34:29.078Z,1000.65
2016-04-27T17:35:29.112Z,1000.71
2016-04-27T17:36:29.131Z,1000.64
2016-04-27T17:37:29.165Z,1000.65
2016-04-27T17:38:29.198Z,1000.62
2016-04-27T17:39:29.232Z,1000.68
2016-04-27T17:40:29.266Z,1000.67
2016-04-27T17:41:29.300Z,1000.67
2016-04-27T17:42:29.318Z,1000.66
2016-04-27T17:43:29.353Z,1000.64
2016-04-27T17:44:29.386Z,1000.67
2016-04-27T17:45:29.405Z,1000.71
2016-04-27T17:46:29.438Z,1000.63
2016-04-27T17:47:29.472Z,1000.69
2016-04-27T17:48:29.506Z,1000.67
2016-04-27T17:49:29.541Z,1000.69
2016-04-27T17:50:29.559Z,1000.73
2016-04-27T17:51:29.592Z,1000.75
2016-04-27T17:52:29.627Z,1000.74
2016-04-27T17:53:29.660Z,1000.8
2016-04-27T17:54:29.694Z,1000.8
2016-04-27T17:55:29.713Z,1000.79
2016-04-27T17:56:29.746Z,1000.81
2016-04-27T17:57:29.780Z,1000.79
2016-04-27T17:58:29.799Z,1000.8
2016-04-27T17:59:29.833Z,1000.78
2016-04-27T18:00:29.866Z,1000.8
2016-04-27T18:01:29.901Z,1000.79
2016-04-27T18:02:29.918Z,1000.77
2016-04-27T18:03:29.953Z,1000.81
2016-04-27T18:04:29.987Z,1000.8
2016-04-27T18:05:30.021Z,1000.8
2016-04-27T18:06:30.040Z,1000.81
2016-04-27T18:07:30.073Z,1000.81
2016-04-27T18:08:30.107Z,1000.86
2016-04-27T18:09:30.282Z,1000.86
2016-04-27T18:10:30.160Z,1000.86
2016-04-27T18:11:30.193Z,1000.85
2016-04-27T18:12:30.227Z,1000.81
2016-04-27T18:13:30.262Z,1000.86
2016-04-27T18:14:30.279Z,1000.91
2016-04-27T18:15:30.313Z,1000.85
2016-04-27T18:16:30.348Z,1000.89
2016-04-27T18:17:30.398Z,1000.88
2016-04-27T18:18:30.399Z,1000.9
2016-04-27T18:19:30.434Z,1000.92
2016-04-27T18:20:30.452Z,1000.91
2016-04-27T18:21:30.486Z,1000.92
2016-04-27T18:22:30.519Z,1000.92
2016-04-27T18:23:30.553Z,1000.94
2016-04-27T18:24:32.244Z,1000.96
2016-04-27T18:25:30.621Z,1000.94
2016-04-27T18:26:30.640Z,1000.97
2016-04-27T18:27:30.674Z,1000.96
2016-04-27T18:28:30.692Z,1001
2016-04-27T18:29:30.727Z,1001.01
2016-04-27T18:30:30.760Z,1001.04
2016-04-27T18:31:30.779Z,1001.04
2016-04-27T18:32:30.813Z,1001.1
2016-04-27T18:33:30.846Z,1001.11
2016-04-27T18:34:30.880Z,1001.09
2016-04-27T18:35:30.899Z,1001.08
2016-04-27T18:36:30.932Z,1001.15
2016-04-27T18:37:30.951Z,1001.09
2016-04-27T18:38:30.984Z,1001.18
2016-04-27T18:39:31.159Z,1001.15
2016-04-27T18:40:31.053Z,1001.23
2016-04-27T18:41:31.087Z,1001.21
2016-04-27T18:42:31.105Z,1001.24
2016-04-27T18:43:31.143Z,1001.32
2016-04-27T18:44:31.161Z,1001.3
2016-04-27T18:45:31.195Z,1001.33
2016-04-27T18:46:31.229Z,1001.26
2016-04-27T18:47:31.263Z,1001.32
2016-04-27T18:48:31.282Z,1001.34
2016-04-27T18:49:31.315Z,1001.31
2016-04-27T18:50:31.349Z,1001.36
2016-04-27T18:51:31.368Z,1001.39
2016-04-27T18:52:31.402Z,1001.39
2016-04-27T18:53:31.421Z,1001.48
2016-04-27T18:54:32.016Z,1001.45
2016-04-27T18:55:31.582Z,1001.44
2016-04-27T18:56:31.521Z,1001.44
2016-04-27T18:57:31.540Z,1001.48
2016-04-27T18:58:31.574Z,1001.47
2016-04-27T18:59:31.607Z,1001.46
2016-04-27T19:00:31.626Z,1001.49
2016-04-27T19:01:31.659Z,1001.51
2016-04-27T19:02:31.694Z,1001.54
2016-04-27T19:03:31.712Z,1001.54
2016-04-27T19:04:31.746Z,1001.53
2016-04-27T19:05:31.781Z,1001.53
2016-04-27T19:06:31.814Z,1001.52
2016-04-27T19:07:31.833Z,1001.55
2016-04-27T19:08:31.867Z,1001.61
2016-04-27T19:09:31.900Z,1001.64
2016-04-27T19:10:31.934Z,1001.66
2016-04-27T19:11:31.953Z,1001.67
2016-04-27T19:12:31.986Z,1001.66
2016-04-27T19:13:32.005Z,1001.67
2016-04-27T19:14:32.039Z,1001.7
2016-04-27T19:15:32.073Z,1001.68
2016-04-27T19:16:32.091Z,1001.68
2016-04-27T19:17:32.125Z,1001.71
2016-04-27T19:18:32.143Z,1001.69